sensor_id;sensor_type;location;lat;lon;timestamp;pressure;altitude;pressure_sealevel;temperature;humidity
31285;BME280;56605;51.516;6.742;2022-07-12T00:02:12;102211.53;;;14.81;100.00
31285;BME280;56605;51.516;6.742;2022-07-12T00:04:38;102214.47;;;14.69;100.00
31285;BME280;56605;51.516;6.742;2022-07-12T00:07:03;102212.22;;;14.56;100.00
31285;BME280;56605;51.516;6.742;2022-07-12T00:09:29;102207.28;;;14.43;100.00
31285;BME280;56605;51.516;6.742;2022-07-12T00:11:54;102204.75;;;14.42;100.00
31285;BME280;56605;51.516;6.742;2022-07-12T00:14:20;102204.97;;;14.30;100.00
31285;BME280;56605;51.516;6.742;2022-07-12T00:16:45;102205.13;;;14.29;100.00
31285;BME280;56605;51.516;6.742;2022-07-12T00:19:11;102201.97;;;14.33;100.00
31285;BME280;56605;51.516;6.742;2022-07-12T00:21:36;102207.63;;;14.22;100.00
31285;BME280;56605;51.516;6.742;2022-07-12T00:24:01;102211.63;;;14.18;100.00
31285;BME280;56605;51.516;6.742;2022-07-12T00:26:27;102204.03;;;14.13;100.00
31285;BME280;56605;51.516;6.742;2022-07-12T00:28:52;102210.84;;;14.26;100.00
31285;BME280;56605;51.516;6.742;2022-07-12T00:31:18;102204.31;;;14.28;100.00
31285;BME280;56605;51.516;6.742;2022-07-12T00:33:43;102194.50;;;14.19;100.00
31285;BME280;56605;51.516;6.742;2022-07-12T00:36:08;102199.41;;;14.05;100.00
31285;BME280;56605;51.516;6.742;2022-07-12T00:38:34;102194.91;;;14.06;100.00
31285;BME280;56605;51.516;6.742;2022-07-12T00:40:59;102190.97;;;14.18;100.00
31285;BME280;56605;51.516;6.742;2022-07-12T00:43:24;102189.97;;;14.19;100.00
31285;BME280;56605;51.516;6.742;2022-07-12T00:45:50;102185.38;;;14.12;100.00
31285;BME280;56605;51.516;6.742;2022-07-12T00:48:17;102181.03;;;14.11;100.00
31285;BME280;56605;51.516;6.742;2022-07-12T00:50:44;102176.69;;;14.18;100.00
31285;BME280;56605;51.516;6.742;2022-07-12T00:53:10;102172.41;;;14.07;100.00
31285;BME280;56605;51.516;6.742;2022-07-12T00:55:36;102172.28;;;13.90;100.00
31285;BME280;56605;51.516;6.742;2022-07-12T00:58:01;102168.38;;;13.85;100.00
31285;BME280;56605;51.516;6.742;2022-07-12T01:00:28;102169.53;;;13.82;100.00
31285;BME280;56605;51.516;6.742;2022-07-12T01:02:55;102171.53;;;13.80;100.00
31285;BME280;56605;51.516;6.742;2022-07-12T01:05:21;102168.69;;;13.81;100.00
31285;BME280;56605;51.516;6.742;2022-07-12T01:07:47;102171.91;;;13.85;100.00
31285;BME280;56605;51.516;6.742;2022-07-12T01:10:13;102168.38;;;13.85;100.00
31285;BME280;56605;51.516;6.742;2022-07-12T01:12:38;102164.78;;;13.76;100.00
31285;BME280;56605;51.516;6.742;2022-07-12T01:15:05;102171.59;;;13.70;100.00
31285;BME280;56605;51.516;6.742;2022-07-12T01:17:30;102174.38;;;13.78;100.00
31285;BME280;56605;51.516;6.742;2022-07-12T01:19:57;102177.81;;;13.71;100.00
31285;BME280;56605;51.516;6.742;2022-07-12T01:22:35;102178.66;;;13.71;100.00
31285;BME280;56605;51.516;6.742;2022-07-12T01:25:02;102175.75;;;13.82;100.00
31285;BME280;56605;51.516;6.742;2022-07-12T01:27:29;102168.38;;;13.85;100.00
31285;BME280;56605;51.516;6.742;2022-07-12T01:29:55;102168.75;;;13.72;100.00
31285;BME280;56605;51.516;6.742;2022-07-12T01:32:21;102176.44;;;13.66;100.00
31285;BME280;56605;51.516;6.742;2022-07-12T01:35:00;102179.94;;;13.67;100.00
31285;BME280;56605;51.516;6.742;2022-07-12T01:37:29;102177.19;;;13.59;100.00
31285;BME280;56605;51.516;6.742;2022-07-12T01:39:57;102187.00;;;13.50;100.00
31285;BME280;56605;51.516;6.742;2022-07-12T01:42:23;102184.31;;;13.50;100.00
31285;BME280;56605;51.516;6.742;2022-07-12T01:44:50;102183.88;;;13.44;100.00
31285;BME280;56605;51.516;6.742;2022-07-12T01:47:20;102194.09;;;13.41;100.00
31285;BME280;56605;51.516;6.742;2022-07-12T01:49:47;102195.25;;;13.38;100.00
31285;BME280;56605;51.516;6.742;2022-07-12T01:52:13;102192.41;;;13.40;100.00
31285;BME280;56605;51.516;6.742;2022-07-12T01:54:39;102196.84;;;13.31;100.00
31285;BME280;56605;51.516;6.742;2022-07-12T01:57:04;102188.88;;;13.39;100.00
31285;BME280;56605;51.516;6.742;2022-07-12T01:59:30;102196.38;;;13.36;100.00
31285;BME280;56605;51.516;6.742;2022-07-12T02:01:56;102201.06;;;13.34;100.00
31285;BME280;56605;51.516;6.742;2022-07-12T02:04:22;102200.84;;;13.17;100.00
31285;BME280;56605;51.516;6.742;2022-07-12T02:06:47;102205.25;;;13.36;100.00
31285;BME280;56605;51.516;6.742;2022-07-12T02:09:13;102205.03;;;13.29;100.00
31285;BME280;56605;51.516;6.742;2022-07-12T02:11:40;102203.31;;;13.28;100.00
31285;BME280;56605;51.516;6.742;2022-07-12T02:14:06;102206.34;;;13.43;100.00
31285;BME280;56605;51.516;6.742;2022-07-12T02:16:32;102204.47;;;13.26;100.00
31285;BME280;56605;51.516;6.742;2022-07-12T02:18:57;102202.50;;;13.28;100.00
31285;BME280;56605;51.516;6.742;2022-07-12T02:21:23;102209.25;;;13.32;100.00
31285;BME280;56605;51.516;6.742;2022-07-12T02:23:48;102206.00;;;13.28;100.00
31285;BME280;56605;51.516;6.742;2022-07-12T02:26:14;102212.06;;;13.30;100.00
31285;BME280;56605;51.516;6.742;2022-07-12T02:28:41;102212.97;;;13.21;100.00
31285;BME280;56605;51.516;6.742;2022-07-12T02:31:06;102214.56;;;13.14;100.00
31285;BME280;56605;51.516;6.742;2022-07-12T02:33:31;102221.59;;;13.15;100.00
31285;BME280;56605;51.516;6.742;2022-07-12T02:35:57;102216.09;;;13.16;100.00
31285;BME280;56605;51.516;6.742;2022-07-12T02:38:22;102209.03;;;13.15;100.00
31285;BME280;56605;51.516;6.742;2022-07-12T02:40:47;102214.50;;;13.24;100.00
31285;BME280;56605;51.516;6.742;2022-07-12T02:43:22;102218.75;;;13.26;100.00
31285;BME280;56605;51.516;6.742;2022-07-12T02:45:47;102208.31;;;13.23;100.00
31285;BME280;56605;51.516;6.742;2022-07-12T02:48:13;102215.50;;;13.23;100.00
31285;BME280;56605;51.516;6.742;2022-07-12T02:50:39;102213.81;;;13.22;100.00
31285;BME280;56605;51.516;6.742;2022-07-12T02:53:05;102212.28;;;13.19;100.00
31285;BME280;56605;51.516;6.742;2022-07-12T02:55:31;102218.97;;;13.05;100.00
31285;BME280;56605;51.516;6.742;2022-07-12T02:57:56;102217.00;;;13.07;100.00
31285;BME280;56605;51.516;6.742;2022-07-12T03:00:21;102219.19;;;13.22;100.00
31285;BME280;56605;51.516;6.742;2022-07-12T03:02:47;102215.56;;;13.13;100.00
31285;BME280;56605;51.516;6.742;2022-07-12T03:05:12;102222.00;;;12.92;100.00
31285;BME280;56605;51.516;6.742;2022-07-12T03:07:37;102210.78;;;13.06;100.00
31285;BME280;56605;51.516;6.742;2022-07-12T03:10:04;102214.47;;;12.96;100.00
31285;BME280;56605;51.516;6.742;2022-07-12T03:12:29;102214.53;;;12.86;100.00
31285;BME280;56605;51.516;6.742;2022-07-12T03:14:54;102218.78;;;12.78;100.00
31285;BME280;56605;51.516;6.742;2022-07-12T03:17:20;102217.81;;;12.70;100.00
31285;BME280;56605;51.516;6.742;2022-07-12T03:19:46;102214.66;;;12.94;100.00
31285;BME280;56605;51.516;6.742;2022-07-12T03:22:11;102203.09;;;12.93;100.00
31285;BME280;56605;51.516;6.742;2022-07-12T03:24:36;102211.97;;;12.94;100.00
31285;BME280;56605;51.516;6.742;2022-07-12T03:27:02;102203.38;;;12.90;100.00
31285;BME280;56605;51.516;6.742;2022-07-12T03:29:27;102204.63;;;12.96;100.00
31285;BME280;56605;51.516;6.742;2022-07-12T03:31:52;102204.94;;;12.83;100.00
31285;BME280;56605;51.516;6.742;2022-07-12T03:34:18;102202.31;;;12.73;100.00
31285;BME280;56605;51.516;6.742;2022-07-12T03:36:43;102206.25;;;12.69;100.00
31285;BME280;56605;51.516;6.742;2022-07-12T03:39:08;102214.38;;;12.87;100.00
31285;BME280;56605;51.516;6.742;2022-07-12T03:41:34;102208.44;;;12.93;100.00
31285;BME280;56605;51.516;6.742;2022-07-12T03:43:59;102200.25;;;12.95;100.00
31285;BME280;56605;51.516;6.742;2022-07-12T03:46:24;102202.22;;;12.93;100.00
31285;BME280;56605;51.516;6.742;2022-07-12T03:48:50;102207.44;;;12.94;100.00
31285;BME280;56605;51.516;6.742;2022-07-12T03:51:15;102208.44;;;12.93;100.00
31285;BME280;56605;51.516;6.742;2022-07-12T03:53:40;102209.06;;;12.77;100.00
31285;BME280;56605;51.516;6.742;2022-07-12T03:56:06;102210.78;;;12.68;100.00
31285;BME280;56605;51.516;6.742;2022-07-12T03:58:31;102214.16;;;12.71;100.00
31285;BME280;56605;51.516;6.742;2022-07-12T04:00:57;102206.38;;;12.77;100.00
31285;BME280;56605;51.516;6.742;2022-07-12T04:03:22;102206.09;;;12.80;100.00
31285;BME280;56605;51.516;6.742;2022-07-12T04:05:47;102218.22;;;12.85;100.00
31285;BME280;56605;51.516;6.742;2022-07-12T04:08:13;102220.19;;;12.83;100.00
31285;BME280;56605;51.516;6.742;2022-07-12T04:10:38;102217.34;;;12.84;100.00
31285;BME280;56605;51.516;6.742;2022-07-12T04:13:03;102223.09;;;12.99;100.00
31285;BME280;56605;51.516;6.742;2022-07-12T04:15:29;102229.84;;;13.03;100.00
31285;BME280;56605;51.516;6.742;2022-07-12T04:17:54;102229.00;;;13.03;100.00
31285;BME280;56605;51.516;6.742;2022-07-12T04:20:19;102227.16;;;13.03;100.00
31285;BME280;56605;51.516;6.742;2022-07-12T04:22:45;102229.44;;;12.98;100.00
31285;BME280;56605;51.516;6.742;2022-07-12T04:25:10;102237.28;;;13.10;100.00
31285;BME280;56605;51.516;6.742;2022-07-12T04:27:35;102231.28;;;13.26;100.00
31285;BME280;56605;51.516;6.742;2022-07-12T04:30:01;102235.28;;;13.22;100.00
31285;BME280;56605;51.516;6.742;2022-07-12T04:32:27;102235.94;;;13.24;100.00
31285;BME280;56605;51.516;6.742;2022-07-12T04:34:52;102229.75;;;13.23;100.00
31285;BME280;56605;51.516;6.742;2022-07-12T04:37:18;102228.25;;;13.39;100.00
31285;BME280;56605;51.516;6.742;2022-07-12T04:39:43;102233.03;;;13.45;100.00
31285;BME280;56605;51.516;6.742;2022-07-12T04:42:08;102226.50;;;13.48;100.00
31285;BME280;56605;51.516;6.742;2022-07-12T04:44:34;102227.72;;;13.63;100.00
31285;BME280;56605;51.516;6.742;2022-07-12T04:46:59;102228.22;;;13.77;100.00
31285;BME280;56605;51.516;6.742;2022-07-12T04:49:25;102222.97;;;13.93;100.00
31285;BME280;56605;51.516;6.742;2022-07-12T04:51:50;102229.09;;;14.04;100.00
31285;BME280;56605;51.516;6.742;2022-07-12T04:54:15;102229.72;;;14.16;100.00
31285;BME280;56605;51.516;6.742;2022-07-12T04:56:40;102225.97;;;14.27;100.00
31285;BME280;56605;51.516;6.742;2022-07-12T04:59:06;102236.84;;;14.43;100.00
31285;BME280;56605;51.516;6.742;2022-07-12T05:01:31;102230.34;;;14.54;100.00
31285;BME280;56605;51.516;6.742;2022-07-12T05:03:57;102223.03;;;14.65;100.00
31285;BME280;56605;51.516;6.742;2022-07-12T05:06:23;102224.59;;;14.76;100.00
31285;BME280;56605;51.516;6.742;2022-07-12T05:08:48;102222.38;;;14.89;100.00
31285;BME280;56605;51.516;6.742;2022-07-12T05:11:14;102222.25;;;15.07;100.00
31285;BME280;56605;51.516;6.742;2022-07-12T05:13:39;102224.84;;;15.17;100.00
31285;BME280;56605;51.516;6.742;2022-07-12T05:16:08;102222.88;;;15.28;100.00
31285;BME280;56605;51.516;6.742;2022-07-12T05:18:34;102225.59;;;15.44;100.00
31285;BME280;56605;51.516;6.742;2022-07-12T05:21:00;102225.31;;;15.56;100.00
31285;BME280;56605;51.516;6.742;2022-07-12T05:23:25;102223.63;;;15.71;100.00
31285;BME280;56605;51.516;6.742;2022-07-12T05:25:51;102229.22;;;15.87;100.00
31285;BME280;56605;51.516;6.742;2022-07-12T05:28:16;102228.03;;;15.81;100.00
31285;BME280;56605;51.516;6.742;2022-07-12T05:30:42;102225.66;;;15.78;100.00
31285;BME280;56605;51.516;6.742;2022-07-12T05:33:08;102222.47;;;15.91;100.00
31285;BME280;56605;51.516;6.742;2022-07-12T05:35:33;102224.00;;;15.93;100.00
31285;BME280;56605;51.516;6.742;2022-07-12T05:37:59;102230.28;;;16.10;100.00
31285;BME280;56605;51.516;6.742;2022-07-12T05:40:24;102228.59;;;16.18;100.00
31285;BME280;56605;51.516;6.742;2022-07-12T05:42:49;102231.78;;;16.21;100.00
31285;BME280;56605;51.516;6.742;2022-07-12T05:45:16;102238.00;;;16.30;100.00
31285;BME280;56605;51.516;6.742;2022-07-12T05:47:42;102244.41;;;16.46;100.00
31285;BME280;56605;51.516;6.742;2022-07-12T05:50:07;102237.81;;;16.48;100.00
31285;BME280;56605;51.516;6.742;2022-07-12T05:52:33;102234.94;;;16.58;100.00
31285;BME280;56605;51.516;6.742;2022-07-12T05:55:17;102241.66;;;16.71;99.86
31285;BME280;56605;51.516;6.742;2022-07-12T05:57:42;102244.84;;;16.83;100.00
31285;BME280;56605;51.516;6.742;2022-07-12T06:00:08;102242.97;;;16.92;98.30
31285;BME280;56605;51.516;6.742;2022-07-12T06:02:34;102247.63;;;17.15;98.50
31285;BME280;56605;51.516;6.742;2022-07-12T06:04:59;102244.06;;;17.22;97.19
31285;BME280;56605;51.516;6.742;2022-07-12T06:07:24;102248.06;;;17.27;98.06
31285;BME280;56605;51.516;6.742;2022-07-12T06:09:49;102257.66;;;17.38;97.07
31285;BME280;56605;51.516;6.742;2022-07-12T06:12:15;102255.63;;;17.40;95.90
31285;BME280;56605;51.516;6.742;2022-07-12T06:14:40;102272.81;;;17.47;96.06
31285;BME280;56605;51.516;6.742;2022-07-12T06:17:06;102277.72;;;17.75;95.69
31285;BME280;56605;51.516;6.742;2022-07-12T06:19:33;102278.44;;;17.92;94.91
31285;BME280;56605;51.516;6.742;2022-07-12T06:21:58;102293.97;;;17.90;94.04
31285;BME280;56605;51.516;6.742;2022-07-12T06:24:23;102297.06;;;17.87;93.78
31285;BME280;56605;51.516;6.742;2022-07-12T06:26:49;102301.34;;;18.05;93.18
31285;BME280;56605;51.516;6.742;2022-07-12T06:29:14;102297.75;;;18.12;92.17
31285;BME280;56605;51.516;6.742;2022-07-12T06:31:39;102304.28;;;18.18;91.62
31285;BME280;56605;51.516;6.742;2022-07-12T06:34:05;102302.56;;;18.25;90.68
31285;BME280;56605;51.516;6.742;2022-07-12T06:36:30;102299.28;;;18.30;90.84
31285;BME280;56605;51.516;6.742;2022-07-12T06:38:55;102307.03;;;18.33;90.70
31285;BME280;56605;51.516;6.742;2022-07-12T06:41:20;102312.97;;;18.29;91.65
31285;BME280;56605;51.516;6.742;2022-07-12T06:43:46;102311.09;;;18.53;91.42
31285;BME280;56605;51.516;6.742;2022-07-12T06:46:11;102311.00;;;18.46;91.51
31285;BME280;56605;51.516;6.742;2022-07-12T06:48:36;102315.66;;;18.37;91.42
31285;BME280;56605;51.516;6.742;2022-07-12T06:51:02;102317.19;;;18.55;92.31
31285;BME280;56605;51.516;6.742;2022-07-12T06:53:27;102315.13;;;18.57;92.64
31285;BME280;56605;51.516;6.742;2022-07-12T06:55:52;102316.34;;;18.54;92.31
31285;BME280;56605;51.516;6.742;2022-07-12T06:58:17;102311.63;;;18.71;91.17
31285;BME280;56605;51.516;6.742;2022-07-12T07:00:43;102302.00;;;18.69;91.49
31285;BME280;56605;51.516;6.742;2022-07-12T07:03:08;102299.44;;;18.91;91.67
31285;BME280;56605;51.516;6.742;2022-07-12T07:05:34;102311.03;;;19.14;88.58
31285;BME280;56605;51.516;6.742;2022-07-12T07:08:01;102312.06;;;19.29;87.59
31285;BME280;56605;51.516;6.742;2022-07-12T07:10:27;102298.78;;;19.04;88.56
31285;BME280;56605;51.516;6.742;2022-07-12T07:12:52;102309.47;;;19.20;87.83
31285;BME280;56605;51.516;6.742;2022-07-12T07:15:17;102308.22;;;19.38;86.90
31285;BME280;56605;51.516;6.742;2022-07-12T07:17:44;102312.22;;;19.42;87.13
31285;BME280;56605;51.516;6.742;2022-07-12T07:20:10;102313.16;;;19.49;86.81
31285;BME280;56605;51.516;6.742;2022-07-12T07:22:35;102309.78;;;19.47;86.78
31285;BME280;56605;51.516;6.742;2022-07-12T07:25:00;102313.75;;;19.67;85.59
31285;BME280;56605;51.516;6.742;2022-07-12T07:27:26;102311.03;;;19.82;85.85
31285;BME280;56605;51.516;6.742;2022-07-12T07:29:51;102312.75;;;20.05;83.22
31285;BME280;56605;51.516;6.742;2022-07-12T07:32:35;102316.38;;;20.12;81.90
31285;BME280;56605;51.516;6.742;2022-07-12T07:35:01;102308.59;;;20.31;81.01
31285;BME280;56605;51.516;6.742;2022-07-12T07:37:27;102311.00;;;20.19;81.03
31285;BME280;56605;51.516;6.742;2022-07-12T07:39:52;102304.94;;;20.17;80.33
31285;BME280;56605;51.516;6.742;2022-07-12T07:42:17;102302.75;;;20.27;80.23
31285;BME280;56605;51.516;6.742;2022-07-12T07:44:43;102306.94;;;20.30;80.89
31285;BME280;56605;51.516;6.742;2022-07-12T07:47:08;102310.56;;;20.37;80.14
31285;BME280;56605;51.516;6.742;2022-07-12T07:49:33;102313.81;;;20.54;79.47
31285;BME280;56605;51.516;6.742;2022-07-12T07:51:59;102319.59;;;20.44;78.86
31285;BME280;56605;51.516;6.742;2022-07-12T07:54:24;102325.94;;;20.58;77.77
31285;BME280;56605;51.516;6.742;2022-07-12T07:56:49;102326.69;;;20.74;78.04
31285;BME280;56605;51.516;6.742;2022-07-12T07:59:14;102319.31;;;20.89;76.95
31285;BME280;56605;51.516;6.742;2022-07-12T08:01:40;102315.28;;;20.85;76.71
31285;BME280;56605;51.516;6.742;2022-07-12T08:04:13;102318.09;;;20.70;76.64
31285;BME280;56605;51.516;6.742;2022-07-12T08:06:38;102313.34;;;20.79;76.46
31285;BME280;56605;51.516;6.742;2022-07-12T08:09:04;102308.63;;;20.88;75.76
31285;BME280;56605;51.516;6.742;2022-07-12T08:11:30;102314.22;;;21.08;75.85
31285;BME280;56605;51.516;6.742;2022-07-12T08:13:56;102311.09;;;21.11;75.91
31285;BME280;56605;51.516;6.742;2022-07-12T08:16:21;102315.59;;;20.69;76.99
31285;BME280;56605;51.516;6.742;2022-07-12T08:18:46;102309.53;;;20.95;75.92
31285;BME280;56605;51.516;6.742;2022-07-12T08:21:12;102306.22;;;21.00;76.15
31285;BME280;56605;51.516;6.742;2022-07-12T08:23:37;102307.81;;;20.87;76.13
31285;BME280;56605;51.516;6.742;2022-07-12T08:26:03;102313.19;;;21.09;75.16
31285;BME280;56605;51.516;6.742;2022-07-12T08:28:28;102310.19;;;21.39;74.51
31285;BME280;56605;51.516;6.742;2022-07-12T08:30:53;102312.19;;;21.73;74.07
31285;BME280;56605;51.516;6.742;2022-07-12T08:33:19;102308.94;;;22.79;68.88
31285;BME280;56605;51.516;6.742;2022-07-12T08:35:44;102305.66;;;23.82;65.44
31285;BME280;56605;51.516;6.742;2022-07-12T08:38:09;102300.16;;;22.57;68.48
31285;BME280;56605;51.516;6.742;2022-07-12T08:40:35;102301.97;;;23.10;68.10
31285;BME280;56605;51.516;6.742;2022-07-12T08:43:01;102302.50;;;24.17;63.71
31285;BME280;56605;51.516;6.742;2022-07-12T08:45:26;102308.38;;;24.91;60.74
31285;BME280;56605;51.516;6.742;2022-07-12T08:47:52;102298.66;;;25.63;58.26
31285;BME280;56605;51.516;6.742;2022-07-12T08:50:19;102302.13;;;25.40;57.79
31285;BME280;56605;51.516;6.742;2022-07-12T08:52:46;102299.81;;;25.06;58.80
31285;BME280;56605;51.516;6.742;2022-07-12T08:57:49;102308.31;;;24.72;60.08
31285;BME280;56605;51.516;6.742;2022-07-12T09:00:14;102295.97;;;24.69;61.08
31285;BME280;56605;51.516;6.742;2022-07-12T09:05:17;102302.69;;;25.91;56.09
31285;BME280;56605;51.516;6.742;2022-07-12T09:07:43;102299.59;;;24.89;59.65
31285;BME280;56605;51.516;6.742;2022-07-12T09:10:10;102295.16;;;26.77;54.13
31285;BME280;56605;51.516;6.742;2022-07-12T09:12:36;102301.31;;;25.39;57.87
31285;BME280;56605;51.516;6.742;2022-07-12T09:15:19;102302.94;;;26.44;53.42
31285;BME280;56605;51.516;6.742;2022-07-12T09:17:59;102302.94;;;26.32;53.65
31285;BME280;56605;51.516;6.742;2022-07-12T09:20:33;102307.56;;;26.80;52.05
31285;BME280;56605;51.516;6.742;2022-07-12T09:23:01;102294.81;;;26.74;52.73
31285;BME280;56605;51.516;6.742;2022-07-12T09:25:28;102302.31;;;26.42;53.91
31285;BME280;56605;51.516;6.742;2022-07-12T09:27:58;102307.88;;;23.60;63.45
31285;BME280;56605;51.516;6.742;2022-07-12T09:30:26;102305.25;;;25.43;56.42
31285;BME280;56605;51.516;6.742;2022-07-12T09:33:06;102302.44;;;26.36;54.41
31285;BME280;56605;51.516;6.742;2022-07-12T09:38:53;102299.59;;;26.42;53.12
31285;BME280;56605;51.516;6.742;2022-07-12T09:41:20;102304.81;;;26.92;51.60
31285;BME280;56605;51.516;6.742;2022-07-12T09:43:46;102302.06;;;25.77;55.43
31285;BME280;56605;51.516;6.742;2022-07-12T09:46:13;102300.06;;;24.35;58.78
31285;BME280;56605;51.516;6.742;2022-07-12T09:48:39;102297.44;;;26.68;52.23
31285;BME280;56605;51.516;6.742;2022-07-12T09:51:10;102292.69;;;26.40;52.37
31285;BME280;56605;51.516;6.742;2022-07-12T09:53:46;102305.56;;;27.57;50.00
31285;BME280;56605;51.516;6.742;2022-07-12T09:56:17;102297.16;;;27.06;49.88
31285;BME280;56605;51.516;6.742;2022-07-12T09:58:55;102300.13;;;25.47;54.84
31285;BME280;56605;51.516;6.742;2022-07-12T10:01:22;102301.72;;;25.86;52.72
31285;BME280;56605;51.516;6.742;2022-07-12T10:03:49;102296.59;;;25.77;54.22
31285;BME280;56605;51.516;6.742;2022-07-12T10:06:26;102288.22;;;25.41;54.69
31285;BME280;56605;51.516;6.742;2022-07-12T10:08:52;102288.75;;;25.81;53.33
31285;BME280;56605;51.516;6.742;2022-07-12T10:11:19;102286.44;;;25.16;55.04
31285;BME280;56605;51.516;6.742;2022-07-12T10:13:45;102288.94;;;26.10;52.27
31285;BME280;56605;51.516;6.742;2022-07-12T10:16:13;102290.78;;;26.64;50.32
31285;BME280;56605;51.516;6.742;2022-07-12T10:18:39;102279.47;;;26.49;49.58
31285;BME280;56605;51.516;6.742;2022-07-12T10:21:20;102289.09;;;24.41;55.98
31285;BME280;56605;51.516;6.742;2022-07-12T10:23:47;102282.00;;;25.83;51.64
31285;BME280;56605;51.516;6.742;2022-07-12T10:29:07;102273.16;;;25.01;52.86
31285;BME280;56605;51.516;6.742;2022-07-12T10:31:38;102273.34;;;27.06;48.03
31285;BME280;56605;51.516;6.742;2022-07-12T10:34:19;102275.75;;;26.67;49.07
31285;BME280;56605;51.516;6.742;2022-07-12T10:39:23;102279.69;;;27.82;45.25
31285;BME280;56605;51.516;6.742;2022-07-12T10:42:12;102282.38;;;27.77;44.84
31285;BME280;56605;51.516;6.742;2022-07-12T10:44:47;102288.16;;;28.44;42.75
31285;BME280;56605;51.516;6.742;2022-07-12T10:47:14;102283.13;;;28.07;43.65
31285;BME280;56605;51.516;6.742;2022-07-12T10:49:46;102281.31;;;28.47;41.89
31285;BME280;56605;51.516;6.742;2022-07-12T10:54:39;102291.38;;;28.07;44.19
31285;BME280;56605;51.516;6.742;2022-07-12T10:57:05;102289.69;;;28.23;43.74
31285;BME280;56605;51.516;6.742;2022-07-12T10:59:34;102280.06;;;28.38;42.91
31285;BME280;56605;51.516;6.742;2022-07-12T11:01:59;102275.00;;;28.69;42.86
31285;BME280;56605;51.516;6.742;2022-07-12T11:04:25;102272.84;;;29.66;40.75
31285;BME280;56605;51.516;6.742;2022-07-12T11:06:53;102273.84;;;28.65;42.27
31285;BME280;56605;51.516;6.742;2022-07-12T11:09:21;102275.19;;;29.02;42.06
31285;BME280;56605;51.516;6.742;2022-07-12T11:11:48;102257.28;;;27.56;45.78
31285;BME280;56605;51.516;6.742;2022-07-12T11:14:29;102258.22;;;29.10;41.09
31285;BME280;56605;51.516;6.742;2022-07-12T11:16:55;102247.16;;;29.27;40.83
31285;BME280;56605;51.516;6.742;2022-07-12T11:19:26;102256.06;;;29.40;39.99
31285;BME280;56605;51.516;6.742;2022-07-12T11:21:52;102257.69;;;28.91;41.08
31285;BME280;56605;51.516;6.742;2022-07-12T11:24:24;102251.66;;;28.49;41.18
31285;BME280;56605;51.516;6.742;2022-07-12T11:26:50;102248.19;;;28.76;41.32
31285;BME280;56605;51.516;6.742;2022-07-12T11:29:16;102238.38;;;29.30;39.21
31285;BME280;56605;51.516;6.742;2022-07-12T11:31:42;102244.44;;;29.05;39.82
31285;BME280;56605;51.516;6.742;2022-07-12T11:34:08;102227.59;;;28.79;40.63
31285;BME280;56605;51.516;6.742;2022-07-12T11:36:45;102222.34;;;28.32;41.62
31285;BME280;56605;51.516;6.742;2022-07-12T11:39:10;102227.66;;;28.84;39.74
31285;BME280;56605;51.516;6.742;2022-07-12T11:41:35;102226.81;;;28.83;40.46
31285;BME280;56605;51.516;6.742;2022-07-12T11:44:01;102224.56;;;28.97;39.43
31285;BME280;56605;51.516;6.742;2022-07-12T11:46:26;102218.66;;;29.11;39.14
31285;BME280;56605;51.516;6.742;2022-07-12T11:48:51;102220.69;;;29.21;38.98
31285;BME280;56605;51.516;6.742;2022-07-12T11:51:17;102216.47;;;30.06;38.00
31285;BME280;56605;51.516;6.742;2022-07-12T11:53:42;102219.41;;;29.94;36.21
31285;BME280;56605;51.516;6.742;2022-07-12T11:56:09;102219.38;;;30.27;37.24
31285;BME280;56605;51.516;6.742;2022-07-12T11:58:36;102218.50;;;29.51;37.03
31285;BME280;56605;51.516;6.742;2022-07-12T12:01:04;102220.63;;;29.43;37.36
31285;BME280;56605;51.516;6.742;2022-07-12T12:03:30;102211.63;;;27.04;42.83
31285;BME280;56605;51.516;6.742;2022-07-12T12:05:57;102210.03;;;29.90;37.95
31285;BME280;56605;51.516;6.742;2022-07-12T12:08:23;102216.72;;;30.43;35.69
31285;BME280;56605;51.516;6.742;2022-07-12T12:10:57;102213.38;;;29.97;36.24
31285;BME280;56605;51.516;6.742;2022-07-12T12:13:24;102209.56;;;29.98;37.00
31285;BME280;56605;51.516;6.742;2022-07-12T12:15:55;102207.31;;;29.30;37.54
31285;BME280;56605;51.516;6.742;2022-07-12T12:21:02;102201.06;;;29.67;36.31
31285;BME280;56605;51.516;6.742;2022-07-12T12:23:28;102213.81;;;29.51;36.52
31285;BME280;56605;51.516;6.742;2022-07-12T12:26:14;102196.44;;;29.73;37.17
31285;BME280;56605;51.516;6.742;2022-07-12T12:28:45;102203.09;;;29.49;38.19
31285;BME280;56605;51.516;6.742;2022-07-12T12:31:11;102197.03;;;30.18;37.11
31285;BME280;56605;51.516;6.742;2022-07-12T12:33:39;102209.47;;;30.80;34.78
31285;BME280;56605;51.516;6.742;2022-07-12T12:36:19;102210.78;;;30.18;36.36
31285;BME280;56605;51.516;6.742;2022-07-12T12:38:46;102200.16;;;29.61;37.91
31285;BME280;56605;51.516;6.742;2022-07-12T12:41:12;102200.94;;;29.24;37.95
31285;BME280;56605;51.516;6.742;2022-07-12T12:43:39;102201.13;;;29.17;37.58
31285;BME280;56605;51.516;6.742;2022-07-12T12:46:04;102192.25;;;29.10;37.84
31285;BME280;56605;51.516;6.742;2022-07-12T12:48:31;102186.28;;;29.51;37.09
31285;BME280;56605;51.516;6.742;2022-07-12T12:51:10;102196.34;;;30.00;36.03
31285;BME280;56605;51.516;6.742;2022-07-12T12:53:37;102193.69;;;29.73;36.34
31285;BME280;56605;51.516;6.742;2022-07-12T12:56:06;102191.44;;;30.08;35.98
31285;BME280;56605;51.516;6.742;2022-07-12T12:58:32;102185.47;;;30.80;33.61
31285;BME280;56605;51.516;6.742;2022-07-12T13:00:58;102183.81;;;30.84;33.70
31285;BME280;56605;51.516;6.742;2022-07-12T13:03:23;102180.78;;;30.81;33.73